createdAt,value
2022-11-16T00:01:13.263Z,98444.25
2022-11-16T00:03:40.807Z,98443.63
2022-11-16T00:06:08.604Z,98443.22
2022-11-16T00:08:47.276Z,98446.34
2022-11-16T00:11:17.050Z,98445.75
2022-11-16T00:13:44.405Z,98442.78
2022-11-16T00:16:18.192Z,98444.91
2022-11-16T00:18:45.187Z,98444.50
2022-11-16T00:21:12.183Z,98441.56
2022-11-16T00:23:39.426Z,98457.91
2022-11-16T00:26:07.876Z,98448.25
2022-11-16T00:28:35.684Z,98445.75
2022-11-16T00:31:05.046Z,98443.22
2022-11-16T00:33:32.566Z,98437.97
2022-11-16T00:36:07.821Z,98443.03
2022-11-16T00:38:35.172Z,98440.72
2022-11-16T00:41:02.443Z,98437.59
2022-11-16T00:43:30.124Z,98441.13
2022-11-16T00:45:57.241Z,98440.13
2022-11-16T00:48:24.325Z,98444.72
2022-11-16T00:50:51.518Z,98438.63
2022-11-16T00:53:20.409Z,98434.22
2022-11-16T00:55:48.304Z,98437.59
2022-11-16T00:58:17.443Z,98441.97
2022-11-16T01:00:48.672Z,98437.78
2022-11-16T01:03:15.996Z,98441.13
2022-11-16T01:05:43.001Z,98451.78
2022-11-16T01:08:10.331Z,98440.91
2022-11-16T01:10:39.730Z,98447.78
2022-11-16T01:13:07.128Z,98443.16
2022-11-16T01:15:34.182Z,98446.94
2022-11-16T01:18:01.172Z,98442.13
2022-11-16T01:20:29.451Z,98437.31
2022-11-16T01:22:57.000Z,98437.94
2022-11-16T01:25:24.185Z,98431.03
2022-11-16T01:27:51.221Z,98435.63
2022-11-16T01:30:25.306Z,98432.06
2022-11-16T01:33:02.611Z,98424.09
2022-11-16T01:35:29.606Z,98423.03
2022-11-16T01:37:57.008Z,98423.25
2022-11-16T01:40:27.060Z,98422.63
2022-11-16T01:42:54.112Z,98430.56
2022-11-16T01:45:39.868Z,98419.69
2022-11-16T01:48:11.314Z,98418.22
2022-11-16T01:50:39.329Z,98418.41
2022-11-16T01:53:08.839Z,98421.53
2022-11-16T01:55:46.641Z,98421.16
2022-11-16T01:58:26.138Z,98412.56
2022-11-16T02:00:58.954Z,98411.91
2022-11-16T02:03:37.659Z,98409.00
2022-11-16T02:06:23.350Z,98401.69
2022-11-16T02:09:13.710Z,98400.81
2022-11-16T02:12:01.079Z,98398.75
2022-11-16T02:14:55.177Z,98397.91
2022-11-16T02:17:47.174Z,98389.34
2022-11-16T02:20:27.117Z,98387.22
2022-11-16T02:22:57.320Z,98389.75
2022-11-16T02:25:45.131Z,98391.84
2022-11-16T02:28:52.252Z,98390.41
2022-11-16T02:31:37.045Z,98390.16
2022-11-16T02:34:07.756Z,98393.13
2022-11-16T02:36:38.773Z,98388.09
2022-11-16T02:39:14.636Z,98374.06
2022-11-16T02:41:44.028Z,98382.22
2022-11-16T02:44:17.346Z,98378.25
2022-11-16T02:46:46.262Z,98378.25
2022-11-16T02:49:19.129Z,98374.03
2022-11-16T02:51:47.525Z,98370.09
2022-11-16T02:54:17.612Z,98376.78
2022-11-16T02:57:15.530Z,98374.47
2022-11-16T02:59:46.601Z,98370.47
2022-11-16T03:02:13.773Z,98366.91
2022-11-16T03:04:45.871Z,98365.03
2022-11-16T03:07:16.162Z,98372.56
2022-11-16T03:09:46.748Z,98364.41
2022-11-16T03:12:16.573Z,98365.88
2022-11-16T03:14:46.853Z,98359.38
2022-11-16T03:17:20.131Z,98366.50
2022-11-16T03:20:09.433Z,98371.28
2022-11-16T03:22:42.006Z,98369.63
2022-11-16T03:25:15.763Z,98367.53
2022-11-16T03:27:52.469Z,98363.56
2022-11-16T03:30:23.997Z,98363.34
2022-11-16T03:33:05.764Z,98358.34
2022-11-16T03:35:36.366Z,98354.13
2022-11-16T03:38:06.383Z,98358.94
2022-11-16T03:40:36.021Z,98346.81
2022-11-16T03:43:06.432Z,98348.91
2022-11-16T03:45:34.014Z,98352.25
2022-11-16T03:48:01.055Z,98343.47
2022-11-16T03:50:28.170Z,98340.31
2022-11-16T03:52:55.307Z,98350.97
2022-11-16T03:55:22.567Z,98353.28
2022-11-16T03:57:49.635Z,98344.94
2022-11-16T04:00:16.848Z,98346.19
2022-11-16T04:02:44.517Z,98346.59
2022-11-16T04:05:18.108Z,98348.72
2022-11-16T04:07:45.111Z,98339.09
2022-11-16T04:10:12.953Z,98335.94
2022-11-16T04:12:43.768Z,98344.09
2022-11-16T04:15:10.836Z,98339.28
2022-11-16T04:17:37.803Z,98344.09
2022-11-16T04:20:05.704Z,98331.53
2022-11-16T04:22:39.780Z,98341.38
2022-11-16T04:25:27.074Z,98351.25
2022-11-16T04:27:54.861Z,98341.59
2022-11-16T04:30:22.206Z,98345.78
2022-11-16T04:32:50.246Z,98351.63
2022-11-16T04:35:17.630Z,98345.59
2022-11-16T04:37:45.476Z,98349.13
2022-11-16T04:40:13.064Z,98350.59
2022-11-16T04:42:40.131Z,98356.69
2022-11-16T04:45:07.842Z,98352.69
2022-11-16T04:47:42.169Z,98358.56
2022-11-16T04:50:09.379Z,98343.69
2022-11-16T04:52:36.373Z,98350.63
2022-11-16T04:55:05.609Z,98344.56
2022-11-16T04:57:32.816Z,98347.47
2022-11-16T04:59:59.926Z,98341.44
2022-11-16T05:02:27.707Z,98346.66
2022-11-16T05:04:57.858Z,98340.38
2022-11-16T05:07:26.227Z,98336.19
2022-11-16T05:10:00.803Z,98330.53
2022-11-16T05:12:28.554Z,98339.31
2022-11-16T05:14:59.331Z,98334.53
2022-11-16T05:17:29.498Z,98330.34
2022-11-16T05:19:59.139Z,98339.78
2022-11-16T05:22:27.698Z,98338.06
2022-11-16T05:24:56.909Z,98337.66
2022-11-16T05:27:25.429Z,98339.97
2022-11-16T05:29:53.095Z,98338.94
2022-11-16T05:32:24.483Z,98329.28
2022-11-16T05:34:54.032Z,98341.22
2022-11-16T05:37:22.617Z,98345.63
2022-11-16T05:39:50.275Z,98343.75
2022-11-16T05:42:19.084Z,98348.75
2022-11-16T05:44:46.247Z,98347.69
2022-11-16T05:47:13.367Z,98351.88
2022-11-16T05:49:40.499Z,98349.59
2022-11-16T05:52:08.063Z,98355.25
2022-11-16T05:54:35.325Z,98355.44
2022-11-16T05:57:02.495Z,98358.19
2022-11-16T05:59:29.533Z,98369.72
2022-11-16T06:01:59.044Z,98364.25
2022-11-16T06:04:26.537Z,98359.66
2022-11-16T06:06:54.595Z,98359.66
2022-11-16T06:09:23.396Z,98357.13
2022-11-16T06:11:50.615Z,98367.59
2022-11-16T06:14:17.637Z,98364.47
2022-11-16T06:16:44.769Z,98368.66
2022-11-16T06:19:11.770Z,98367.81
2022-11-16T06:21:38.851Z,98370.31
2022-11-16T06:24:11.842Z,98374.50
2022-11-16T06:26:39.561Z,98368.47
2022-11-16T06:29:06.755Z,98370.75
2022-11-16T06:31:35.187Z,98368.47
2022-11-16T06:34:03.578Z,98375.38
2022-11-16T06:36:30.662Z,98378.09
2022-11-16T06:39:00.103Z,98377.44
2022-11-16T06:41:28.939Z,98378.28
2022-11-16T06:43:56.456Z,98371.59
2022-11-16T06:46:29.764Z,98376.19
2022-11-16T06:48:58.528Z,98371.19
2022-11-16T06:51:25.541Z,98374.09
2022-11-16T06:53:53.058Z,98390.84
2022-11-16T06:56:21.209Z,98390.44
2022-11-16T06:58:56.113Z,98390.00
2022-11-16T07:01:24.888Z,98394.22
2022-11-16T07:03:56.928Z,98401.72
2022-11-16T07:06:23.883Z,98397.53
2022-11-16T07:08:50.903Z,98401.75
2022-11-16T07:11:23.106Z,98402.59
2022-11-16T07:13:50.059Z,98408.22
2022-11-16T07:16:17.694Z,98408.84
2022-11-16T07:18:51.614Z,98414.75
2022-11-16T07:21:19.235Z,98417.88
2022-11-16T07:23:46.665Z,98413.06
2022-11-16T07:26:18.673Z,98414.09
2022-11-16T07:28:51.490Z,98412.44
2022-11-16T07:31:21.540Z,98412.03
2022-11-16T07:34:45.135Z,98412.88
2022-11-16T07:38:09.749Z,98418.75
2022-11-16T07:41:45.596Z,98415.16
2022-11-16T07:45:08.944Z,98429.84
2022-11-16T07:48:22.490Z,98425.44
2022-11-16T07:51:15.558Z,98425.44
2022-11-16T07:53:53.168Z,98429.84
2022-11-16T07:56:20.174Z,98426.72
2022-11-16T07:58:48.506Z,98434.03
2022-11-16T08:01:17.817Z,98437.41
2022-11-16T08:03:46.922Z,98444.31
2022-11-16T08:06:18.138Z,98443.69
2022-11-16T08:08:45.135Z,98452.91
2022-11-16T08:11:13.502Z,98455.03
2022-11-16T08:13:42.282Z,98450.63
2022-11-16T08:16:15.719Z,98455.88
2022-11-16T08:18:45.271Z,98454.81
2022-11-16T08:21:15.405Z,98466.31
2022-11-16T08:23:44.209Z,98465.50
2022-11-16T08:26:18.507Z,98461.72
2022-11-16T08:28:51.147Z,98459.38
2022-11-16T08:31:25.536Z,98454.16
2022-11-16T08:34:00.285Z,98459.63
2022-11-16T08:36:28.074Z,98454.78
2022-11-16T08:38:55.154Z,98449.53
2022-11-16T08:41:24.322Z,98459.41
2022-11-16T08:43:51.382Z,98464.63
2022-11-16T08:46:20.917Z,98467.94
2022-11-16T08:48:57.578Z,98481.38
2022-11-16T08:51:25.262Z,98474.44
2022-11-16T08:53:59.859Z,98472.38
2022-11-16T08:56:28.019Z,98475.25
2022-11-16T08:58:58.621Z,98483.56
2022-11-16T09:01:28.809Z,98487.50
2022-11-16T09:03:56.229Z,98476.75
2022-11-16T09:06:24.842Z,98471.97
2022-11-16T09:08:52.239Z,98478.34
2022-11-16T09:11:22.261Z,98480.53
2022-11-16T09:13:51.864Z,98480.13
2022-11-16T09:16:20.098Z,98479.16
2022-11-16T09:18:49.967Z,98470.38
2022-11-16T09:21:22.139Z,98469.63
2022-11-16T09:23:49.950Z,98474.09
2022-11-16T09:26:18.315Z,98474.78
2022-11-16T09:28:45.322Z,98480.41
2022-11-16T09:31:12.341Z,98476.53
2022-11-16T09:33:39.344Z,98481.38
2022-11-16T09:36:09.053Z,98476.84
2022-11-16T09:39:13.965Z,98479.13
2022-11-16T09:42:06.736Z,98479.84
2022-11-16T09:44:58.214Z,98482.63
2022-11-16T09:47:38.105Z,98485.84
2022-11-16T09:50:07.118Z,98495.03
2022-11-16T09:52:43.030Z,98496.50
2022-11-16T09:55:28.523Z,98506.50
2022-11-16T09:57:59.160Z,98505.78
2022-11-16T10:00:28.010Z,98510.09
2022-11-16T10:03:04.255Z,98500.28
2022-11-16T10:05:40.017Z,98497.69
2022-11-16T10:08:22.162Z,98512.06
2022-11-16T10:11:13.477Z,98510.09
2022-11-16T10:14:11.410Z,98505.53
2022-11-16T10:16:50.555Z,98502.94
2022-11-16T10:19:30.781Z,98506.88
2022-11-16T10:22:53.096Z,98495.88
2022-11-16T10:25:26.223Z,98500.81
2022-11-16T10:28:11.219Z,98505.44
2022-11-16T10:30:58.232Z,98506.38
2022-11-16T10:33:26.676Z,98503.25
2022-11-16T10:35:53.746Z,98493.97
2022-11-16T10:38:27.392Z,98494.56
2022-11-16T10:41:05.580Z,98485.75
2022-11-16T10:43:33.927Z,98487.97
2022-11-16T10:46:22.253Z,98484.25
2022-11-16T10:48:54.364Z,98485.38
2022-11-16T10:51:21.417Z,98485.22
2022-11-16T10:53:48.388Z,98487.94
2022-11-16T10:56:17.066Z,98485.50
2022-11-16T10:59:01.872Z,98485.84
2022-11-16T11:01:37.891Z,98477.22
2022-11-16T11:04:22.953Z,98474.81
2022-11-16T11:06:58.637Z,98469.94
2022-11-16T11:09:27.715Z,98463.72
2022-11-16T11:12:12.899Z,98474.09
2022-11-16T11:14:39.877Z,98469.31
2022-11-16T11:17:17.432Z,98470.66
2022-11-16T11:19:44.441Z,98473.88
2022-11-16T11:22:14.458Z,98481.16
2022-11-16T11:24:47.678Z,98470.59
2022-11-16T11:27:22.337Z,98479.84
2022-11-16T11:29:55.208Z,98474.28
2022-11-16T11:32:31.866Z,98474.13
2022-11-16T11:34:59.212Z,98469.88
2022-11-16T11:37:33.287Z,98465.03
2022-11-16T11:40:09.316Z,98467.91
2022-11-16T11:42:41.001Z,98462.78
2022-11-16T11:45:13.470Z,98458.13
2022-11-16T11:48:02.458Z,98458.28
2022-11-16T11:50:52.618Z,98452.06
2022-11-16T11:53:45.698Z,98457.91
2022-11-16T11:56:14.487Z,98455.97
2022-11-16T11:58:43.026Z,98461.31
2022-11-16T12:01:47.894Z,98461.66
2022-11-16T12:04:42.638Z,98459.59
2022-11-16T12:07:27.306Z,98452.22
2022-11-16T12:10:26.250Z,98459.75
2022-11-16T12:13:08.006Z,98455.34
2022-11-16T12:16:05.908Z,98459.09
2022-11-16T12:18:50.893Z,98464.31
2022-11-16T12:21:30.957Z,98458.03
2022-11-16T12:24:23.722Z,98459.09
2022-11-16T12:27:18.125Z,98457.72
2022-11-16T12:30:03.801Z,98455.13
2022-11-16T12:32:39.736Z,98462.50
2022-11-16T12:35:21.825Z,98459.56
2022-11-16T12:38:02.041Z,98449.38
2022-11-16T12:40:34.109Z,98454.38
2022-11-16T12:43:21.015Z,98442.94
2022-11-16T12:46:15.073Z,98453.38
2022-11-16T12:48:55.639Z,98448.84
2022-11-16T12:51:45.232Z,98442.13
2022-11-16T12:54:30.726Z,98442.03
2022-11-16T12:57:16.022Z,98436.94
2022-11-16T12:59:48.983Z,98437.25
2022-11-16T13:02:31.242Z,98422.13
2022-11-16T13:05:07.215Z,98422.13
2022-11-16T13:07:45.346Z,98419.66
2022-11-16T13:10:18.208Z,98417.59
2022-11-16T13:12:55.825Z,98412.47
2022-11-16T13:15:35.764Z,98411.28
2022-11-16T13:18:04.876Z,98403.91
2022-11-16T13:20:39.650Z,98398.81
2022-11-16T13:23:19.269Z,98401.06
2022-11-16T13:25:53.770Z,98403.56
2022-11-16T13:28:36.994Z,98392.47
2022-11-16T13:31:25.606Z,98401.88
2022-11-16T13:34:02.948Z,98391.00
2022-11-16T13:36:36.015Z,98386.44
2022-11-16T13:39:05.400Z,98391.47
2022-11-16T13:41:41.841Z,98391.50
2022-11-16T13:44:25.587Z,98395.03
2022-11-16T13:46:57.587Z,98395.88
2022-11-16T13:49:41.249Z,98392.16
2022-11-16T13:52:41.005Z,98384.94
2022-11-16T13:55:16.215Z,98386.47
2022-11-16T13:57:51.964Z,98392.31
2022-11-16T14:00:53.647Z,98386.75
2022-11-16T14:03:20.626Z,98385.31
2022-11-16T14:05:52.557Z,98391.63
2022-11-16T14:08:19.733Z,98376.72
2022-11-16T14:10:49.721Z,98373.69
2022-11-16T14:13:35.491Z,98360.31
2022-11-16T14:16:14.629Z,98355.44
2022-11-16T14:18:42.899Z,98367.38
2022-11-16T14:21:43.804Z,98356.22
2022-11-16T14:24:16.965Z,98350.13
2022-11-16T14:27:16.788Z,98350.81
2022-11-16T14:29:47.014Z,98352.81
2022-11-16T14:32:21.610Z,98359.66
2022-11-16T14:34:51.738Z,98360.31
2022-11-16T14:37:21.749Z,98365.00
2022-11-16T14:40:07.881Z,98358.00
2022-11-16T14:43:01.879Z,98350.00
2022-11-16T14:45:35.748Z,98345.25
2022-11-16T14:48:06.417Z,98358.06
2022-11-16T14:50:38.131Z,98352.44
2022-11-16T14:53:09.375Z,98350.59
2022-11-16T14:55:42.705Z,98343.53
2022-11-16T14:58:22.305Z,98342.38
2022-11-16T15:00:58.869Z,98338.69
2022-11-16T15:03:40.221Z,98339.25
2022-11-16T15:06:08.160Z,98340.84
2022-11-16T15:08:43.113Z,98349.94
2022-11-16T15:11:20.688Z,98347.63
2022-11-16T15:13:49.165Z,98342.88
2022-11-16T15:16:19.712Z,98340.13
2022-11-16T15:18:58.024Z,98338.69
2022-11-16T15:21:25.719Z,98337.44
2022-11-16T15:24:23.337Z,98332.47
2022-11-16T15:26:40.045Z,98329.34
2022-11-16T15:29:15.200Z,98329.38
2022-11-16T15:31:42.356Z,98318.50
2022-11-16T15:34:13.060Z,98320.84
2022-11-16T15:36:41.023Z,98318.38
2022-11-16T15:39:19.624Z,98318.63
2022-11-16T15:41:47.143Z,98320.09
2022-11-16T15:44:17.591Z,98326.03
2022-11-16T15:46:49.080Z,98324.34
2022-11-16T15:49:36.128Z,98320.81
2022-11-16T15:52:03.428Z,98331.72
2022-11-16T15:54:32.998Z,98326.28
2022-11-16T15:57:11.840Z,98334.66
2022-11-16T15:59:38.935Z,98318.50
2022-11-16T16:02:18.120Z,98318.91
2022-11-16T16:04:45.178Z,98315.97
2022-11-16T16:07:32.245Z,98307.97
2022-11-16T16:10:18.752Z,98296.47
2022-11-16T16:12:54.810Z,98292.88
2022-11-16T16:15:29.388Z,98293.34
2022-11-16T16:17:58.556Z,98293.97
2022-11-16T16:20:29.180Z,98299.03
2022-11-16T16:23:12.708Z,98292.75
2022-11-16T16:25:39.696Z,98296.97
2022-11-16T16:28:06.850Z,98295.69
2022-11-16T16:30:34.068Z,98300.50
2022-11-16T16:33:02.118Z,98292.75
2022-11-16T16:35:29.485Z,98292.94
2022-11-16T16:38:01.344Z,98284.34
2022-11-16T16:40:29.690Z,98293.97
2022-11-16T16:42:57.137Z,98290.00
2022-11-16T16:45:34.860Z,98286.00
2022-11-16T16:48:01.860Z,98283.53
2022-11-16T16:50:28.915Z,98284.19
2022-11-16T16:52:55.903Z,98290.44
2022-11-16T16:55:23.274Z,98288.56
2022-11-16T16:57:50.319Z,98285.44
2022-11-16T17:00:17.755Z,98290.66
2022-11-16T17:02:44.785Z,98292.16
2022-11-16T17:05:11.749Z,98283.19
2022-11-16T17:07:38.760Z,98291.94
2022-11-16T17:10:06.562Z,98295.72
2022-11-16T17:12:33.562Z,98289.00
2022-11-16T17:15:00.650Z,98286.50
2022-11-16T17:17:27.633Z,98283.97
2022-11-16T17:19:54.610Z,98275.38
2022-11-16T17:22:21.649Z,98278.53
2022-11-16T17:24:48.715Z,98277.72
2022-11-16T17:27:15.669Z,98272.06
2022-11-16T17:29:42.738Z,98263.03
2022-11-16T17:32:09.786Z,98267.88
2022-11-16T17:34:36.833Z,98261.59
2022-11-16T17:37:03.902Z,98266.41
2022-11-16T17:39:30.856Z,98264.31
2022-11-16T17:41:57.857Z,98256.78
2022-11-16T17:44:24.879Z,98252.59
2022-11-16T17:46:52.009Z,98257.84
2022-11-16T17:49:18.978Z,98253.44
2022-11-16T17:51:45.963Z,98256.34
2022-11-16T17:54:12.952Z,98258.22
2022-11-16T17:56:40.187Z,98257.41
2022-11-16T17:59:07.147Z,98262.44
2022-11-16T18:01:34.188Z,98259.50
2022-11-16T18:04:01.257Z,98255.09
2022-11-16T18:06:28.731Z,98258.69
2022-11-16T18:08:56.823Z,98255.97
2022-11-16T18:11:26.284Z,98255.31
2022-11-16T18:13:55.681Z,98254.28
2022-11-16T18:16:25.395Z,98245.69
2022-11-16T18:19:01.060Z,98252.19
2022-11-16T18:21:28.388Z,98251.97
2022-11-16T18:23:55.757Z,98252.81
2022-11-16T18:26:23.895Z,98245.88
2022-11-16T18:28:52.291Z,98238.13
2022-11-16T18:31:22.385Z,98242.97
2022-11-16T18:33:49.923Z,98239.00
2022-11-16T18:36:18.857Z,98227.06
2022-11-16T18:38:46.514Z,98224.13
2022-11-16T18:41:13.450Z,98224.34
2022-11-16T18:43:42.101Z,98217.66
2022-11-16T18:46:09.091Z,98220.38
2022-11-16T18:48:36.075Z,98205.72
2022-11-16T18:51:04.562Z,98212.00
2022-11-16T18:53:33.693Z,98213.88
2022-11-16T18:56:01.147Z,98203.41
2022-11-16T18:58:50.317Z,98212.59
2022-11-16T19:01:17.744Z,98213.66
2022-11-16T19:03:44.799Z,98210.53
2022-11-16T19:06:11.964Z,98200.47
2022-11-16T19:08:40.695Z,98188.53
2022-11-16T19:11:10.229Z,98197.75
2022-11-16T19:13:38.227Z,98191.69
2022-11-16T19:16:06.313Z,98188.53
2022-11-16T19:18:33.310Z,98188.09
2022-11-16T19:21:12.375Z,98185.16
2022-11-16T19:23:41.730Z,98188.34
2022-11-16T19:26:10.089Z,98194.00
2022-11-16T19:28:42.107Z,98187.50
2022-11-16T19:31:23.696Z,98185.63
2022-11-16T19:33:55.312Z,98195.47
2022-11-16T19:36:23.219Z,98187.13
2022-11-16T19:38:50.407Z,98189.84
2022-11-16T19:41:18.803Z,98179.56
2022-11-16T19:43:45.766Z,98194.22
2022-11-16T19:46:14.771Z,98197.16
2022-11-16T19:48:42.584Z,98190.88
2022-11-16T19:51:12.554Z,98191.50
2022-11-16T19:53:40.421Z,98194.44
2022-11-16T19:56:11.309Z,98197.75
2022-11-16T19:58:38.644Z,98199.88
2022-11-16T20:01:09.612Z,98201.53
2022-11-16T20:03:37.110Z,98202.38
2022-11-16T20:06:17.435Z,98198.41
2022-11-16T20:08:53.021Z,98199.25
2022-11-16T20:11:23.214Z,98197.56
2022-11-16T20:13:52.244Z,98194.84
2022-11-16T20:16:21.403Z,98186.69
2022-11-16T20:18:49.007Z,98182.28
2022-11-16T20:21:27.384Z,98173.50
2022-11-16T20:23:55.594Z,98173.91
2022-11-16T20:26:24.442Z,98183.97
2022-11-16T20:28:52.443Z,98181.44
2022-11-16T20:31:22.131Z,98181.91
2022-11-16T20:33:54.127Z,98182.31
2022-11-16T20:36:22.175Z,98179.59
2022-11-16T20:38:49.332Z,98186.09
2022-11-16T20:41:19.264Z,98195.72
2022-11-16T20:43:47.544Z,98194.47
2022-11-16T20:46:16.634Z,98182.94
2022-11-16T20:48:45.018Z,98179.19
2022-11-16T20:51:14.439Z,98177.28
2022-11-16T20:53:41.406Z,98176.25
2022-11-16T20:56:10.049Z,98172.25
2022-11-16T20:58:37.809Z,98164.53
2022-11-16T21:01:06.632Z,98165.13
2022-11-16T21:03:34.881Z,98162.03
2022-11-16T21:06:02.244Z,98157.84
2022-11-16T21:08:29.420Z,98160.59
2022-11-16T21:10:56.586Z,98158.91
2022-11-16T21:13:23.717Z,98164.78
2022-11-16T21:15:55.541Z,98158.91
2022-11-16T21:18:26.503Z,98163.28
2022-11-16T21:21:13.456Z,98152.84
2022-11-16T21:23:42.741Z,98143.84
2022-11-16T21:26:12.310Z,98141.53
2022-11-16T21:28:39.689Z,98142.75
2022-11-16T21:31:10.033Z,98142.34
2022-11-16T21:33:37.500Z,98129.81
2022-11-16T21:36:06.398Z,98136.47
2022-11-16T21:38:34.456Z,98131.69
2022-11-16T21:41:02.728Z,98125.59
2022-11-16T21:43:29.727Z,98126.03
2022-11-16T21:46:05.205Z,98114.72
2022-11-16T21:48:33.531Z,98117.25
2022-11-16T21:51:08.567Z,98107.81
2022-11-16T21:53:36.875Z,98105.56
2022-11-16T21:56:05.063Z,98102.84
2022-11-16T21:58:32.055Z,98105.56
2022-11-16T22:01:01.362Z,98112.25
2022-11-16T22:03:31.433Z,98110.34
2022-11-16T22:06:01.561Z,98099.66
2022-11-16T22:08:28.541Z,98099.88
2022-11-16T22:10:55.558Z,98099.25
2022-11-16T22:13:22.631Z,98100.13
2022-11-16T22:15:49.589Z,98098.63
2022-11-16T22:18:16.566Z,98097.41
2022-11-16T22:20:46.759Z,98098.00
2022-11-16T22:23:18.623Z,98091.53
2022-11-16T22:25:49.725Z,98087.53
2022-11-16T22:28:21.148Z,98085.69
2022-11-16T22:30:51.655Z,98080.44
2022-11-16T22:33:19.087Z,98079.38
2022-11-16T22:35:46.781Z,98082.56
2022-11-16T22:38:13.755Z,98078.34
2022-11-16T22:40:40.755Z,98078.56
2022-11-16T22:43:07.758Z,98077.31
2022-11-16T22:45:34.765Z,98069.38
2022-11-16T22:48:01.718Z,98067.25
2022-11-16T22:50:28.701Z,98067.47
2022-11-16T22:52:58.368Z,98061.41
2022-11-16T22:55:25.342Z,98061.41
2022-11-16T22:57:52.297Z,98063.09
2022-11-16T23:00:19.598Z,98060.97
2022-11-16T23:02:46.639Z,98062.22
2022-11-16T23:05:13.691Z,98054.06
2022-11-16T23:07:40.719Z,98047.38
2022-11-16T23:10:08.198Z,98050.53
2022-11-16T23:12:37.237Z,98048.25
2022-11-16T23:15:04.661Z,98044.47
2022-11-16T23:17:31.635Z,98039.88
2022-11-16T23:19:59.567Z,98037.38
2022-11-16T23:22:26.556Z,98039.88
2022-11-16T23:24:53.582Z,98037.16
2022-11-16T23:27:20.608Z,98035.28
2022-11-16T23:29:47.802Z,98035.25
2022-11-16T23:32:14.987Z,98031.72
2022-11-16T23:34:41.986Z,98036.72
2022-11-16T23:37:08.956Z,98018.16
2022-11-16T23:39:35.944Z,98021.69
2022-11-16T23:42:03.116Z,98016.91
2022-11-16T23:44:30.100Z,98010.00
2022-11-16T23:46:57.147Z,98009.16
2022-11-16T23:49:24.316Z,98002.88
2022-11-16T23:51:51.291Z,98001.41
2022-11-16T23:54:18.263Z,97985.97
2022-11-16T23:56:45.231Z,97990.34
2022-11-16T23:59:12.249Z,97985.75
